Airfield :
LOGIN :

Register | Disclaimer

   EN    FR    IT 

 










Legend :    VFR   Marginal VFR   IFR   Intensive IFR   Very Intensive IFR
Visi :
Ceiling :
>= 8 km
>= 3000ft
5 to 8 km
1000 to 3000 ft
1500m to 5 km
500 to 1000 ft
800 to 1500m
200 to 500 ft
< 800m
< 200 ft
Symbols :   Thunderstorms  Fog  Heavy snow  Heavy precipitations  Wind > 20 kt
SIGMETs :     Misc.  Thunderstorms  Icing  Turbulence  Mountain Waves  Volcanic Ashes






- Airport Elevation : 423 ft
- IATA code : PIS


LFBI - Poitiers

CURRENT METAR :
  • 070800Z AUTO 36006KT 320V030 CAVOK 20/13 Q1028 NOSIG

EXPIRED METARs :
  • 070730Z AUTO 35007KT CAVOK 19/14 Q1028 NOSIG
  • 070700Z AUTO 01006KT 330V030 CAVOK 18/14 Q1027 NOSIG
  • 070630Z AUTO 35006KT 330V030 CAVOK 17/14 Q1027 NOSIG
  • 070600Z AUTO 34006KT CAVOK 16/13 Q1027 NOSIG
  • 070530Z AUTO 34008KT CAVOK 15/13 Q1027 NOSIG

TAF TAF LFBI
Valid from the 07 at 06:00 until the 08 at 06:00 UTC


070500Z 0706/0806 34008KT CAVOK
BECMG 0802/0805 04006KT



MET'MAP, your aeronautical weather chart ! - Copyright ORBIFLY December 2007 - Disclaimer

ORBIFLY MET'MAP TEAM :

Programming & Development : Alexandra Zaïnal
Original concept : Baudouin d'Aumeries
Technical & hardware support : Manuel Goepfert
Assistance : Marc-Olivier Méhu




SOURCES & CREDITS :

   NOAA